Time;durP1;ratioP1;P1;durP2;ratioP2;P2;SDS_P1;SDS_P2;PMS_P1;PMS_P2;Temp;Humidity;BMP_temperature;BMP_pressure;BME280_temperature;BME280_humidity;BME280_pressure;Samples;Min_cycle;Max_cycle;Signal;HPM_P1;HPM_P2
2022/09/07 00:01:14;;;;;;;9.18;6.25;;;;;;;18.94;100.00;101152.22;5053092;28;20053;-53
2022/09/07 00:03:43;;;;;;;10.18;6.53;;;;;;;18.83;100.00;101163.88;5052658;28;20052;-55
2022/09/07 00:06:13;;;;;;;11.38;5.97;;;;;;;18.83;100.00;101156.75;5053049;28;20045;-56
2022/09/07 00:08:43;;;;;;;8.32;5.40;;;;;;;18.84;100.00;101122.94;5052718;28;20103;-52
2022/09/07 00:11:15;;;;;;;9.90;5.38;;;;;;;18.71;100.00;101134.75;5052880;28;20060;-54
2022/09/07 00:13:45;;;;;;;9.38;5.32;;;;;;;18.62;100.00;101153.44;5052872;28;20422;-52
2022/09/07 00:16:17;;;;;;;9.45;5.50;;;;;;;18.58;100.00;101176.84;5052857;28;20087;-52
2022/09/07 00:18:45;;;;;;;10.07;5.60;;;;;;;18.47;100.00;101195.69;5052807;28;20044;-55
2022/09/07 00:21:16;;;;;;;12.38;6.65;;;;;;;18.56;100.00;101193.00;5052504;28;20515;-54
2022/09/07 00:23:44;;;;;;;11.63;6.82;;;;;;;18.47;100.00;101196.50;5052594;28;20041;-52
2022/09/07 00:26:17;;;;;;;8.57;4.60;;;;;;;18.56;100.00;101179.66;5052230;28;20075;-53
2022/09/07 00:28:45;;;;;;;9.73;5.35;;;;;;;18.57;100.00;101154.72;5051865;28;20467;-52
2022/09/07 00:31:17;;;;;;;9.77;5.32;;;;;;;18.64;100.00;101136.34;5051804;28;20076;-52
2022/09/07 00:33:47;;;;;;;9.18;5.05;;;;;;;18.42;100.00;101126.88;5051802;28;20439;-51
2022/09/07 00:36:15;;;;;;;9.35;5.32;;;;;;;18.44;100.00;101121.41;5052267;28;20056;-57
2022/09/07 00:38:43;;;;;;;9.93;5.13;;;;;;;18.48;100.00;101125.47;5052107;28;20045;-55
2022/09/07 00:41:11;;;;;;;8.55;5.43;;;;;;;18.52;100.00;101121.53;5052385;28;20057;-57
2022/09/07 00:43:46;;;;;;;7.22;4.78;;;;;;;18.51;100.00;101125.16;5052133;28;20480;-57
2022/09/07 00:46:17;;;;;;;9.18;5.93;;;;;;;18.50;100.00;101123.47;5052142;28;20191;-54
2022/09/07 00:48:58;;;;;;;9.73;5.45;;;;;;;18.49;100.00;101113.84;5052063;28;20052;-57
2022/09/07 00:51:33;;;;;;;8.77;5.43;;;;;;;18.58;100.00;101107.63;5052006;28;20546;-55
2022/09/07 00:54:05;;;;;;;10.18;5.93;;;;;;;18.64;100.00;101100.84;5051306;28;20056;-54
2022/09/07 00:56:39;;;;;;;12.75;6.80;;;;;;;18.62;100.00;101093.03;5052273;28;20507;-54
2022/09/07 00:59:08;;;;;;;10.07;6.28;;;;;;;18.61;100.00;101090.50;5052401;28;20049;-56
2022/09/07 01:01:38;;;;;;;11.75;6.10;;;;;;;18.62;100.00;101093.03;5052057;28;20052;-55
2022/09/07 01:04:07;;;;;;;9.90;5.95;;;;;;;18.52;100.00;101094.91;5051832;28;20068;-55
2022/09/07 01:06:38;;;;;;;13.23;5.55;;;;;;;18.54;100.00;101101.75;5052281;28;20049;-57
2022/09/07 01:09:14;;;;;;;10.20;5.80;;;;;;;18.57;100.00;101106.78;5052004;28;20090;-57
2022/09/07 01:11:44;;;;;;;10.05;6.00;;;;;;;18.55;100.00;101116.72;5052222;28;20059;-56
2022/09/07 01:14:15;;;;;;;9.40;5.57;;;;;;;18.61;100.00;101114.47;5051780;28;20060;-57
2022/09/07 01:17:03;;;;;;;9.23;5.75;;;;;;;18.58;100.00;101112.94;5051831;28;20048;-57
2022/09/07 01:20:04;;;;;;;8.95;5.43;;;;;;;18.43;100.00;101107.25;5051654;28;20040;-57
2022/09/07 01:23:07;;;;;;;8.93;5.20;;;;;;;18.45;100.00;101102.63;5048883;28;20455;-57
2022/09/07 01:25:42;;;;;;;;;;;;;;;18.29;100.00;101115.72;5029750;28;20167;-57
2022/09/07 01:28:19;;;;;;;8.38;4.38;;;;;;;18.34;100.00;101129.44;5050641;28;19939;-56
2022/09/07 01:30:55;;;;;;;7.75;4.32;;;;;;;18.40;100.00;101126.19;5052045;28;20071;-56
2022/09/07 01:33:38;;;;;;;7.57;3.97;;;;;;;18.45;100.00;101136.38;5051985;28;20045;-56
2022/09/07 01:36:18;;;;;;;5.40;3.58;;;;;;;18.41;100.00;101144.66;5051687;28;20041;-57
2022/09/07 01:38:51;;;;;;;6.07;3.58;;;;;;;18.25;100.00;101149.75;5051600;28;20045;-56
2022/09/07 01:41:27;;;;;;;6.68;3.20;;;;;;;18.38;100.00;101149.47;5050481;28;20053;-58
2022/09/07 01:44:03;;;;;;;5.00;2.80;;;;;;;18.31;100.00;101146.53;5051508;28;20451;-54
2022/09/07 01:46:37;;;;;;;4.05;2.60;;;;;;;18.38;100.00;101144.97;5051431;28;20144;-56
2022/09/07 01:49:11;;;;;;;5.63;2.75;;;;;;;18.41;100.00;101138.50;5051592;28;20052;-57
2022/09/07 01:51:45;;;;;;;7.18;2.88;;;;;;;18.30;100.00;101134.19;5051533;28;20045;-58
2022/09/07 01:54:21;;;;;;;5.55;2.85;;;;;;;18.37;100.00;101129.97;5051520;28;20530;-57
2022/09/07 01:56:56;;;;;;;6.40;2.75;;;;;;;18.40;100.00;101119.03;5051182;28;20053;-58
2022/09/07 01:59:30;;;;;;;5.25;2.25;;;;;;;18.47;100.00;101131.78;5051361;28;20056;-56
2022/09/07 02:02:04;;;;;;;5.20;2.55;;;;;;;18.48;100.00;101122.81;5051440;28;20496;-57
2022/09/07 02:04:40;;;;;;;5.47;2.50;;;;;;;18.40;100.00;101120.84;5051175;28;20099;-58
2022/09/07 02:07:22;;;;;;;5.43;2.40;;;;;;;18.16;100.00;101119.53;5054254;28;20495;-58
2022/09/07 02:09:54;;;;;;;4.43;2.08;;;;;;;18.17;100.00;101123.00;5054936;28;20043;-56
2022/09/07 02:12:26;;;;;;;6.05;2.30;;;;;;;18.05;100.00;101119.66;5054744;28;20385;-57
2022/09/07 02:15:02;;;;;;;4.78;2.35;;;;;;;18.12;100.00;101120.78;5054738;28;20103;-59
2022/09/07 02:17:33;;;;;;;5.97;2.78;;;;;;;18.19;100.00;101121.88;5054501;28;20052;-58
2022/09/07 02:20:08;;;;;;;3.63;1.98;;;;;;;18.15;100.00;101109.84;5054249;28;20049;-61
2022/09/07 02:22:42;;;;;;;4.70;2.08;;;;;;;18.02;100.00;101110.13;5054382;28;20060;-58
2022/09/07 02:25:14;;;;;;;6.32;2.40;;;;;;;17.89;100.00;101101.59;5054678;28;20045;-57
2022/09/07 02:27:54;;;;;;;4.05;2.25;;;;;;;17.93;100.00;101099.50;5054196;28;20102;-58
2022/09/07 02:30:24;;;;;;;5.22;2.05;;;;;;;17.83;100.00;101102.16;5053107;28;20052;-56
2022/09/07 02:32:52;;;;;;;4.85;2.10;;;;;;;17.74;100.00;101106.50;5054831;28;20470;-57
2022/09/07 02:35:21;;;;;;;8.10;2.25;;;;;;;17.71;100.00;101088.16;5054713;28;20044;-57
2022/09/07 02:37:51;;;;;;;4.47;2.03;;;;;;;17.71;100.00;101089.00;5054615;28;20504;-55
2022/09/07 02:40:19;;;;;;;5.38;2.20;;;;;;;17.78;100.00;101075.13;5054561;28;20049;-58
2022/09/07 02:42:48;;;;;;;7.53;2.22;;;;;;;17.80;100.00;101079.34;5054384;28;20053;-59
2022/09/07 02:45:20;;;;;;;6.20;2.10;;;;;;;17.81;100.00;101093.50;5054551;28;20057;-58
2022/09/07 02:48:07;;;;;;;4.65;1.85;;;;;;;17.80;100.00;101083.81;5053048;28;20057;-56
2022/09/07 02:50:47;;;;;;;3.80;1.83;;;;;;;17.76;100.00;101079.75;5054453;28;20049;-58
2022/09/07 02:53:37;;;;;;;5.95;2.05;;;;;;;17.77;100.00;101078.78;5054313;28;20051;-58
2022/09/07 02:56:14;;;;;;;4.53;1.85;;;;;;;17.76;100.00;101079.75;5054298;28;20076;-58
2022/09/07 02:58:50;;;;;;;5.82;2.20;;;;;;;17.77;100.00;101074.31;5054227;28;20073;-58
2022/09/07 03:01:36;;;;;;;5.35;1.95;;;;;;;17.86;100.00;101080.56;5054189;28;20443;-58
2022/09/07 03:04:16;;;;;;;6.47;2.00;;;;;;;17.84;100.00;101066.59;5084996;28;20054;-58
2022/09/07 03:06:51;;;;;;;3.88;1.90;;;;;;;17.79;100.00;101066.19;5054131;28;20488;-57
2022/09/07 03:09:27;;;;;;;3.75;2.00;;;;;;;17.87;100.00;101060.97;5053676;28;20049;-58
2022/09/07 03:11:57;;;;;;;5.47;1.80;;;;;;;17.78;100.00;101056.50;5053303;28;20060;-58
2022/09/07 03:14:29;;;;;;;3.10;1.90;;;;;;;17.71;100.00;101056.22;5052900;28;20074;-56
2022/09/07 03:16:57;;;;;;;4.90;1.90;;;;;;;17.67;100.00;101057.50;5052316;28;20427;-55
2022/09/07 03:19:27;;;;;;;5.05;2.05;;;;;;;17.76;100.00;101061.97;5052769;28;20492;-56
2022/09/07 03:21:55;;;;;;;6.50;2.47;;;;;;;17.90;100.00;101071.34;5053493;28;20147;-59
2022/09/07 03:24:23;;;;;;;5.20;2.17;;;;;;;17.90;100.00;101063.34;5053651;28;20075;-58
2022/09/07 03:26:52;;;;;;;6.95;2.50;;;;;;;17.92;100.00;101058.78;5053530;28;20049;-53
2022/09/07 03:29:20;;;;;;;4.75;2.30;;;;;;;17.93;100.00;101054.28;5053470;28;20419;-54
2022/09/07 03:31:48;;;;;;;5.00;2.22;;;;;;;17.89;100.00;101035.09;5052074;28;20091;-56
2022/09/07 03:34:16;;;;;;;7.30;2.60;;;;;;;17.89;100.00;101043.06;5053667;28;20090;-55
2022/09/07 03:36:46;;;;;;;6.28;2.40;;;;;;;17.91;100.00;101046.41;5053699;28;20099;-55
2022/09/07 03:39:14;;;;;;;5.88;2.65;;;;;;;17.97;100.00;101048.56;5053463;28;20063;-58
2022/09/07 03:41:42;;;;;;;6.00;2.65;;;;;;;17.96;100.00;101054.84;5052221;28;20076;-58
2022/09/07 03:44:13;;;;;;;5.35;2.72;;;;;;;18.07;100.00;101048.53;5053614;28;20140;-58
2022/09/07 03:46:43;;;;;;;5.47;2.40;;;;;;;18.01;100.00;101052.59;5053195;28;20199;-58
2022/09/07 03:49:11;;;;;;;6.30;2.75;;;;;;;18.11;100.00;101051.75;5053516;28;20049;-58
2022/09/07 03:51:40;;;;;;;5.70;2.60;;;;;;;18.03;100.00;101061.25;5053095;28;20403;-55
2022/09/07 03:54:11;;;;;;;5.47;2.88;;;;;;;18.05;100.00;101058.47;5053134;28;20775;-58
2022/09/07 03:56:39;;;;;;;7.10;3.00;;;;;;;18.05;100.00;101059.31;5053309;28;20560;-56
2022/09/07 03:59:07;;;;;;;5.38;2.58;;;;;;;18.10;100.00;101055.38;5052706;28;20040;-56
2022/09/07 04:01:37;;;;;;;5.90;2.42;;;;;;;18.09;100.00;101059.84;5052899;28;20128;-58
2022/09/07 04:04:11;;;;;;;6.43;2.85;;;;;;;17.97;100.00;101069.84;5051626;28;20049;-58
2022/09/07 04:06:40;;;;;;;6.72;2.85;;;;;;;17.96;100.00;101057.50;5052606;28;20053;-56
2022/09/07 04:09:13;;;;;;;7.55;3.28;;;;;;;18.07;100.00;101057.34;5052488;28;20568;-58
2022/09/07 04:11:41;;;;;;;;;;;;;;;17.95;100.00;101055.81;5052912;28;20060;-58
2022/09/07 04:14:11;;;;;;;7.38;3.63;;;;;;;17.87;100.00;101050.34;5052300;28;19921;-58
2022/09/07 04:16:39;;;;;;;5.93;3.60;;;;;;;17.98;100.00;101047.53;5052579;28;20041;-59
2022/09/07 04:19:07;;;;;;;9.55;4.28;;;;;;;17.96;100.00;101038.88;5051898;28;20052;-56
2022/09/07 04:21:35;;;;;;;7.60;4.43;;;;;;;17.90;100.00;101036.75;5051685;28;20052;-55
2022/09/07 04:24:03;;;;;;;8.13;3.75;;;;;;;17.94;100.00;101038.16;5051743;28;20102;-59
2022/09/07 04:26:35;;;;;;;6.32;3.83;;;;;;;17.88;100.00;101030.75;5051882;28;20049;-58
2022/09/07 04:29:05;;;;;;;7.88;4.03;;;;;;;17.86;100.00;101035.34;5083971;28;20136;-56
2022/09/07 04:31:34;;;;;;;8.00;4.45;;;;;;;17.83;100.00;101039.16;5052286;28;20053;-58
2022/09/07 04:34:02;;;;;;;7.55;4.50;;;;;;;17.97;100.00;101034.38;5052230;28;20052;-58
2022/09/07 04:36:30;;;;;;;8.95;4.88;;;;;;;18.10;100.00;101039.41;5052528;28;20049;-58
2022/09/07 04:39:00;;;;;;;9.02;5.15;;;;;;;18.06;100.00;101039.72;5050875;28;20072;-58
2022/09/07 04:41:30;;;;;;;13.05;6.68;;;;;;;18.07;100.00;101053.84;5052311;28;20481;-59
2022/09/07 04:44:02;;;;;;;12.43;8.07;;;;;;;18.04;100.00;101054.97;5052274;28;20049;-56
2022/09/07 04:46:33;;;;;;;12.65;8.63;;;;;;;18.03;100.00;101053.28;5051999;28;20053;-57
2022/09/07 04:49:04;;;;;;;12.10;9.02;;;;;;;18.13;100.00;101055.91;5050884;28;20060;-56
2022/09/07 04:51:32;;;;;;;12.93;9.55;;;;;;;18.20;100.00;101041.06;5052021;28;20043;-57
2022/09/07 04:54:02;;;;;;;12.80;8.93;;;;;;;18.15;100.00;101038.00;5052027;28;20045;-57
2022/09/07 04:56:31;;;;;;;14.07;10.60;;;;;;;18.18;100.00;101037.69;5051921;28;20053;-56
2022/09/07 04:59:01;;;;;;;14.77;10.98;;;;;;;17.99;100.00;101027.13;5052119;28;20041;-58
2022/09/07 05:01:31;;;;;;;15.43;10.73;;;;;;;18.06;100.00;101023.75;5051864;28;20049;-56
2022/09/07 05:04:01;;;;;;;14.48;11.57;;;;;;;18.07;100.00;101013.94;5052329;28;20037;-58
2022/09/07 05:06:29;;;;;;;15.98;12.07;;;;;;;18.11;100.00;101025.13;5052086;28;20076;-58
2022/09/07 05:08:59;;;;;;;15.48;12.40;;;;;;;18.06;100.00;101034.38;5052059;28;20124;-58
2022/09/07 05:11:28;;;;;;;16.00;12.57;;;;;;;17.89;100.00;101038.56;5050832;28;20103;-56
2022/09/07 05:13:57;;;;;;;18.60;13.00;;;;;;;17.85;100.00;101050.50;5051940;28;20045;-58
2022/09/07 05:16:30;;;;;;;21.55;12.60;;;;;;;17.90;100.00;101050.06;5051791;28;20383;-59
2022/09/07 05:19:04;;;;;;;16.98;13.10;;;;;;;17.90;100.00;101055.38;5052028;28;20532;-57
2022/09/07 05:21:33;;;;;;;16.58;12.55;;;;;;;17.99;100.00;101054.56;5051767;28;20048;-58
2022/09/07 05:24:03;;;;;;;16.40;12.52;;;;;;;17.93;100.00;101055.13;5051716;28;20413;-59
2022/09/07 05:26:32;;;;;;;17.77;13.40;;;;;;;17.93;100.00;101052.47;5051792;28;20140;-56
2022/09/07 05:29:08;;;;;;;16.80;11.82;;;;;;;17.79;100.00;101053.72;5051732;28;20064;-58
2022/09/07 05:31:57;;;;;;;15.98;12.52;;;;;;;17.79;100.00;101052.88;5051570;28;20063;-56
2022/09/07 05:34:25;;;;;;;16.92;12.93;;;;;;;17.74;100.00;101056.81;5051934;28;20048;-57
2022/09/07 05:36:58;;;;;;;21.17;13.85;;;;;;;17.80;100.00;101058.06;5051539;28;20500;-57
2022/09/07 05:39:27;;;;;;;16.70;13.30;;;;;;;17.81;100.00;101056.25;5051969;28;20064;-57
2022/09/07 05:41:55;;;;;;;17.35;13.57;;;;;;;17.78;100.00;101061.81;5054932;28;20383;-58
2022/09/07 05:44:23;;;;;;;16.20;13.20;;;;;;;17.70;100.00;101071.38;5055603;28;20080;-57
2022/09/07 05:47:14;;;;;;;18.70;14.70;;;;;;;17.71;100.00;101070.38;5055523;28;20087;-57
2022/09/07 05:49:42;;;;;;;21.33;15.50;;;;;;;17.74;100.00;101085.22;5055556;28;20124;-56
2022/09/07 05:52:10;;;;;;;21.42;15.95;;;;;;;17.76;100.00;101079.75;5055384;28;20131;-55
2022/09/07 05:54:39;;;;;;;20.80;16.40;;;;;;;17.70;100.00;101086.50;5055200;28;20056;-57
2022/09/07 05:57:07;;;;;;;19.35;16.83;;;;;;;17.74;100.00;101080.75;5055311;28;20045;-55
2022/09/07 05:59:37;;;;;;;22.02;17.10;;;;;;;17.77;100.00;101073.47;5055253;28;20114;-58
2022/09/07 06:02:07;;;;;;;19.30;17.20;;;;;;;17.89;100.00;101067.03;5055104;28;20072;-56
2022/09/07 06:04:37;;;;;;;21.35;17.75;;;;;;;17.83;100.00;101080.88;5055150;28;20056;-59
2022/09/07 06:07:07;;;;;;;21.50;18.77;;;;;;;17.89;100.00;101075.00;5055262;28;20049;-56
2022/09/07 06:09:49;;;;;;;21.27;19.08;;;;;;;17.91;100.00;101083.66;5055064;28;20076;-55
2022/09/07 06:12:38;;;;;;;22.15;19.80;;;;;;;17.94;100.00;101082.56;5054714;28;20758;-56
2022/09/07 06:15:07;;;;;;;23.50;19.65;;;;;;;17.98;100.00;101084.78;5054830;28;20123;-56
2022/09/07 06:17:35;;;;;;;22.48;20.05;;;;;;;18.01;100.00;101084.53;5054680;28;20045;-56
2022/09/07 06:20:06;;;;;;;26.83;19.85;;;;;;;18.05;100.00;101079.75;5054772;28;20048;-58
2022/09/07 06:22:36;;;;;;;27.10;19.25;;;;;;;18.09;100.00;101075.81;5054863;28;20049;-58
2022/09/07 06:25:04;;;;;;;20.63;17.95;;;;;;;18.13;100.00;101081.69;5054759;28;20504;-58
2022/09/07 06:27:35;;;;;;;22.83;19.23;;;;;;;18.18;100.00;101088.25;5054560;28;20072;-59
2022/09/07 06:30:04;;;;;;;22.42;19.02;;;;;;;18.21;100.00;101084.47;5054714;28;20037;-57
2022/09/07 06:32:35;;;;;;;22.00;18.20;;;;;;;18.21;100.00;101084.47;5054689;28;20080;-56
2022/09/07 06:35:14;;;;;;;22.73;19.17;;;;;;;18.27;100.00;101083.91;5054513;28;20192;-58
2022/09/07 06:37:43;;;;;;;22.90;18.63;;;;;;;18.38;100.00;101088.22;5054517;28;20051;-56
2022/09/07 06:40:12;;;;;;;23.48;19.38;;;;;;;18.33;100.00;101088.66;5054550;28;20045;-58
2022/09/07 06:42:41;;;;;;;22.42;18.85;;;;;;;18.38;100.00;101091.72;5054281;28;20045;-58
2022/09/07 06:45:14;;;;;;;22.70;19.40;;;;;;;18.36;100.00;101093.66;5052907;28;20080;-58
2022/09/07 06:47:42;;;;;;;22.02;19.70;;;;;;;18.46;100.00;101099.00;5054273;28;20076;-59
2022/09/07 06:50:11;;;;;;;24.88;20.27;;;;;;;18.49;100.00;101100.53;5054259;28;20056;-58
2022/09/07 06:52:42;;;;;;;22.20;18.85;;;;;;;18.55;100.00;101094.59;5053206;28;20047;-57
2022/09/07 06:55:30;;;;;;;24.33;19.08;;;;;;;18.62;100.00;101095.69;5054171;28;20083;-57
2022/09/07 06:57:58;;;;;;;22.42;19.35;;;;;;;18.61;100.00;101098.50;5054111;28;20401;-57
2022/09/07 07:00:26;;;;;;;21.55;19.23;;;;;;;18.61;100.00;101094.03;5054192;28;20048;-57
2022/09/07 07:02:54;;;;;;;22.95;19.05;;;;;;;18.62;100.00;101095.69;5053874;28;20090;-56
2022/09/07 07:05:22;;;;;;;22.45;19.83;;;;;;;18.62;100.00;101106.34;5054096;28;20575;-57
2022/09/07 07:07:51;;;;;;;22.80;19.38;;;;;;;18.62;100.00;101117.00;5053831;28;20045;-57
2022/09/07 07:10:19;;;;;;;22.33;18.80;;;;;;;18.56;100.00;101121.09;5053607;28;20052;-59
2022/09/07 07:12:55;;;;;;;25.50;19.90;;;;;;;18.53;100.00;101118.72;5053667;28;20041;-56
2022/09/07 07:15:28;;;;;;;23.23;20.52;;;;;;;18.56;100.00;101114.94;5053774;28;20489;-59
2022/09/07 07:17:56;;;;;;;22.92;19.45;;;;;;;18.52;100.00;101109.03;5053681;28;20056;-57
2022/09/07 07:20:37;;;;;;;23.48;20.88;;;;;;;18.55;100.00;101108.75;5052469;28;20056;-59
2022/09/07 07:23:07;;;;;;;23.05;19.45;;;;;;;18.61;100.00;101109.16;5053419;28;20137;-59
2022/09/07 07:25:37;;;;;;;27.05;21.17;;;;;;;18.58;100.00;101103.16;5053871;28;20057;-58
2022/09/07 07:28:06;;;;;;;23.55;21.05;;;;;;;18.61;100.00;101109.16;5053520;28;20080;-58
2022/09/07 07:30:55;;;;;;;22.92;20.50;;;;;;;18.67;100.00;101111.25;5053231;28;20396;-59
2022/09/07 07:33:30;;;;;;;23.63;20.38;;;;;;;18.69;100.00;101109.25;5053663;28;20053;-61
2022/09/07 07:36:10;;;;;;;24.85;20.27;;;;;;;18.72;100.00;101107.16;5053212;28;20515;-59
2022/09/07 07:38:42;;;;;;;26.00;20.05;;;;;;;18.70;100.00;101116.28;5053299;28;20064;-57
2022/09/07 07:41:30;;;;;;;23.98;19.13;;;;;;;18.74;100.00;101115.81;5053287;28;20053;-59
2022/09/07 07:44:18;;;;;;;23.60;19.95;;;;;;;18.75;100.00;101124.66;5053116;28;20063;-58
2022/09/07 07:46:47;;;;;;;22.33;19.02;;;;;;;18.77;100.00;101122.69;5053023;28;20403;-60
2022/09/07 07:49:16;;;;;;;24.35;19.58;;;;;;;18.77;100.00;101121.84;5053134;28;20471;-60
2022/09/07 07:51:44;;;;;;;21.38;18.90;;;;;;;18.75;100.00;101125.50;5053127;28;20622;-60
2022/09/07 07:54:35;;;;;;;23.73;19.85;;;;;;;18.79;100.00;101125.19;5051785;28;20207;-60
2022/09/07 07:57:05;;;;;;;24.38;20.00;;;;;;;18.83;100.00;101126.56;5053084;28;20052;-60
2022/09/07 07:59:33;;;;;;;22.85;18.88;;;;;;;18.87;100.00;101126.16;5053021;28;20059;-58
2022/09/07 08:02:03;;;;;;;22.27;19.65;;;;;;;19.01;100.00;101126.69;5053113;28;20037;-60
2022/09/07 08:04:35;;;;;;;26.63;20.40;;;;;;;19.28;100.00;101131.16;5051471;28;20059;-60
2022/09/07 08:07:09;;;;;;;24.25;19.73;;;;;;;19.45;100.00;101126.00;5052981;28;20048;-60
2022/09/07 08:09:40;;;;;;;26.08;19.10;;;;;;;19.61;100.00;101136.81;5052887;28;20124;-61
2022/09/07 08:12:11;;;;;;;21.75;19.05;;;;;;;19.48;100.00;101141.69;5052811;28;20124;-57
2022/09/07 08:14:40;;;;;;;22.05;18.90;;;;;;;19.57;100.00;101130.94;5052601;28;20488;-59
2022/09/07 08:17:09;;;;;;;20.83;18.48;;;;;;;19.66;100.00;101142.53;5051563;28;20048;-60
2022/09/07 08:19:38;;;;;;;22.52;18.27;;;;;;;19.81;100.00;101147.34;5052788;28;20568;-58
2022/09/07 08:22:07;;;;;;;21.15;18.75;;;;;;;19.90;100.00;101154.44;5052834;28;20111;-58
2022/09/07 08:24:35;;;;;;;22.65;18.65;;;;;;;20.22;100.00;101153.03;5052714;28;20107;-61
2022/09/07 08:27:05;;;;;;;21.50;18.55;;;;;;;20.46;100.00;101157.69;5052446;28;20044;-61
2022/09/07 08:29:33;;;;;;;20.70;18.33;;;;;;;20.60;100.00;101167.81;5052583;28;20053;-59
2022/09/07 08:32:05;;;;;;;22.27;17.40;;;;;;;20.65;100.00;101156.63;5052606;28;20045;-59
2022/09/07 08:34:36;;;;;;;20.33;17.60;;;;;;;20.69;100.00;101158.03;5052547;28;20439;-57
2022/09/07 08:37:04;;;;;;;20.90;16.92;;;;;;;20.80;100.00;101159.59;5052453;28;20106;-59
2022/09/07 08:39:32;;;;;;;19.30;17.20;;;;;;;20.85;100.00;101151.94;5052694;28;20515;-61
2022/09/07 08:42:21;;;;;;;19.63;16.17;;;;;;;20.88;100.00;101159.63;5052294;28;20539;-61
2022/09/07 08:44:55;;;;;;;18.95;17.00;;;;;;;20.89;100.00;101158.63;5051867;28;20053;-59
2022/09/07 08:47:36;;;;;;;23.35;18.02;;;;;;;20.75;100.00;101161.88;5052296;28;20128;-60
2022/09/07 08:50:11;;;;;;;20.05;17.63;;;;;;;20.90;100.00;101160.31;5052156;28;20045;-62
2022/09/07 08:52:47;;;;;;;19.38;17.20;;;;;;;20.99;100.00;101163.84;5052384;28;20045;-59
2022/09/07 08:55:24;;;;;;;22.25;17.90;;;;;;;21.22;100.00;101169.44;5052293;28;20079;-61
2022/09/07 08:58:04;;;;;;;19.85;17.55;;;;;;;21.30;100.00;101159.75;5052219;28;20057;-61
2022/09/07 09:00:34;;;;;;;22.40;17.80;;;;;;;21.44;100.00;101173.34;5052027;28;20045;-58
2022/09/07 09:03:03;;;;;;;21.58;18.02;;;;;;;21.55;100.00;101168.75;5052237;28;20033;-60
2022/09/07 09:06:01;;;;;;;22.52;17.20;;;;;;;21.69;100.00;101167.25;5052052;28;20098;-60
2022/09/07 09:08:44;;;;;;;19.35;17.25;;;;;;;21.66;100.00;101168.41;5051972;28;20388;-59
2022/09/07 09:11:20;;;;;;;23.42;17.73;;;;;;;21.72;100.00;101170.44;5052268;28;20049;-61
2022/09/07 09:14:02;;;;;;;19.92;17.92;;;;;;;21.93;100.00;101174.47;5052216;28;20535;-61
2022/09/07 09:16:35;;;;;;;20.55;18.00;;;;;;;21.85;100.00;101169.94;5054979;28;20033;-58
2022/09/07 09:19:18;;;;;;;19.63;17.42;;;;;;;22.05;100.00;101170.44;5056107;28;20063;-59
2022/09/07 09:21:46;;;;;;;20.50;17.52;;;;;;;22.00;100.00;101171.97;5056265;28;20049;-59
2022/09/07 09:24:18;;;;;;;19.50;16.67;;;;;;;22.11;100.00;101174.28;5056074;28;20123;-61
2022/09/07 09:26:51;;;;;;;19.40;16.88;;;;;;;22.28;100.00;101173.28;5056010;28;20053;-60
2022/09/07 09:29:23;;;;;;;19.23;17.23;;;;;;;22.35;100.00;101172.66;5054615;28;20110;-60
2022/09/07 09:31:52;;;;;;;19.53;17.27;;;;;;;22.40;98.51;101183.66;5056052;28;20365;-58
2022/09/07 09:34:20;;;;;;;20.70;17.83;;;;;;;22.59;99.83;101172.59;5055887;28;20460;-60
2022/09/07 09:36:55;;;;;;;21.38;17.33;;;;;;;23.02;97.46;101172.28;5055766;28;20114;-61
2022/09/07 09:39:29;;;;;;;21.75;17.63;;;;;;;23.11;97.53;101173.09;5055674;28;20051;-60
2022/09/07 09:42:01;;;;;;;19.65;16.63;;;;;;;23.48;95.34;101174.28;5055589;28;20053;-59
2022/09/07 09:44:36;;;;;;;21.00;16.57;;;;;;;23.68;95.03;101171.94;5055676;28;20041;-61
2022/09/07 09:47:05;;;;;;;20.27;16.83;;;;;;;23.69;95.14;101168.25;5055555;28;20087;-61
2022/09/07 09:49:54;;;;;;;17.30;15.07;;;;;;;23.96;89.80;101172.25;5053909;28;20049;-60
2022/09/07 09:52:24;;;;;;;18.13;16.23;;;;;;;23.73;90.44;101174.94;5054956;28;20037;-61
2022/09/07 09:54:58;;;;;;;16.88;15.07;;;;;;;24.06;93.67;101174.69;5054770;28;20041;-60
2022/09/07 09:57:49;;;;;;;18.13;14.38;;;;;;;24.30;87.39;101170.13;5054110;28;20064;-61
2022/09/07 10:00:53;;;;;;;16.30;14.55;;;;;;;24.65;86.11;101167.78;5054886;28;20462;-60
2022/09/07 10:03:41;;;;;;;16.50;14.25;;;;;;;24.72;83.34;101171.41;5054818;28;20120;-60
2022/09/07 10:06:29;;;;;;;18.35;13.60;;;;;;;24.60;84.29;101160.22;5055116;28;20048;-60
2022/09/07 10:09:01;;;;;;;14.38;12.63;;;;;;;24.84;81.96;101162.84;5054607;28;20557;-61
2022/09/07 10:11:43;;;;;;;15.98;12.90;;;;;;;25.02;83.00;101151.69;5054788;28;20569;-59
2022/09/07 10:14:35;;;;;;;17.55;12.35;;;;;;;25.57;80.24;101154.84;5054604;28;20037;-61
2022/09/07 10:17:14;;;;;;;14.57;12.13;;;;;;;25.71;78.57;101156.63;5054537;28;20106;-59
2022/09/07 10:19:43;;;;;;;13.70;11.48;;;;;;;25.77;76.03;101155.88;5054729;28;20056;-59
2022/09/07 10:22:24;;;;;;;13.48;11.23;;;;;;;25.90;74.64;101155.13;5055097;28;20047;-61
2022/09/07 10:24:52;;;;;;;11.80;9.90;;;;;;;26.27;75.00;101157.75;5054872;28;20511;-61
2022/09/07 10:27:30;;;;;;;13.05;11.07;;;;;;;26.20;72.87;101154.16;5053570;28;20059;-59
2022/09/07 10:29:58;;;;;;;14.75;12.35;;;;;;;26.21;73.61;101166.63;5054666;28;20475;-60
2022/09/07 10:32:39;;;;;;;13.55;11.88;;;;;;;26.39;73.95;101148.06;5054795;28;20080;-59
2022/09/07 10:35:15;;;;;;;13.77;12.05;;;;;;;26.19;72.15;101149.81;5054800;28;20056;-59
2022/09/07 10:37:52;;;;;;;14.98;12.30;;;;;;;26.18;73.05;101150.81;5054865;28;20048;-59
2022/09/07 10:40:30;;;;;;;14.90;13.10;;;;;;;25.93;73.57;101149.38;5054641;28;20052;-59
2022/09/07 10:43:10;;;;;;;17.48;13.55;;;;;;;26.06;71.17;101147.84;5054608;28;20102;-59
2022/09/07 10:46:11;;;;;;;14.07;12.52;;;;;;;26.55;73.66;101146.13;5054368;28;20110;-60
2022/09/07 10:48:51;;;;;;;13.73;11.63;;;;;;;27.11;72.54;101140.56;5054411;28;20041;-60
2022/09/07 10:51:29;;;;;;;11.80;9.80;;;;;;;27.24;69.86;101144.34;5054503;28;20045;-62
2022/09/07 10:54:06;;;;;;;12.70;10.95;;;;;;;27.67;66.19;101144.06;5054363;28;20610;-61
2022/09/07 10:57:06;;;;;;;13.02;9.60;;;;;;;27.24;67.15;101138.94;5052826;28;20049;-63
2022/09/07 10:59:46;;;;;;;11.60;9.90;;;;;;;27.38;68.32;101139.84;5054194;28;20049;-62
2022/09/07 11:02:45;;;;;;;12.60;10.48;;;;;;;27.23;66.07;101131.88;5054217;28;20045;-59
2022/09/07 11:05:44;;;;;;;12.85;11.00;;;;;;;27.35;65.37;101134.81;5052789;28;20548;-62
2022/09/07 11:08:32;;;;;;;12.07;8.88;;;;;;;27.80;64.36;101143.22;5052782;28;20411;-62
2022/09/07 11:11:26;;;;;;;10.60;8.75;;;;;;;27.89;63.41;101133.06;5054263;28;20064;-62
2022/09/07 11:14:18;;;;;;;10.05;7.35;;;;;;;28.11;62.01;101134.50;5053960;28;20500;-59
2022/09/07 11:16:52;;;;;;;9.13;5.97;;;;;;;28.66;62.30;101141.53;5054063;28;20051;-62
2022/09/07 11:19:26;;;;;;;9.43;6.57;;;;;;;28.58;60.29;101147.09;5054057;28;20416;-61
2022/09/07 11:22:15;;;;;;;10.60;5.70;;;;;;;28.70;60.87;101134.63;5053974;28;20518;-60
2022/09/07 11:24:49;;;;;;;10.63;6.68;;;;;;;28.42;60.18;101143.81;5053564;28;20095;-59
2022/09/07 11:27:42;;;;;;;8.85;6.10;;;;;;;28.63;58.95;101142.78;5053777;28;20140;-60
2022/09/07 11:30:19;;;;;;;9.65;6.38;;;;;;;28.54;59.13;101140.47;5053608;28;20051;-63
2022/09/07 11:32:59;;;;;;;8.85;6.25;;;;;;;28.27;59.61;101135.13;5053602;28;20099;-62
2022/09/07 11:35:37;;;;;;;10.30;5.68;;;;;;;28.24;59.94;101139.09;5053108;28;20045;-60
2022/09/07 11:38:14;;;;;;;8.55;5.78;;;;;;;28.57;59.03;101126.53;5053097;28;20045;-62
2022/09/07 11:40:55;;;;;;;8.63;5.55;;;;;;;29.12;56.80;101126.94;5053379;28;20455;-60